sensor_id;sensor_type;location;lat;lon;timestamp;temperature;humidity
11126;DHT22;5617;54.046;10.676;2022-11-15T00:00:31;7.10;99.90
11126;DHT22;5617;54.046;10.676;2022-11-15T00:02:41;7.10;99.90
11126;DHT22;5617;54.046;10.676;2022-11-15T00:04:50;7.10;99.90
11126;DHT22;5617;54.046;10.676;2022-11-15T00:06:59;7.10;99.90
11126;DHT22;5617;54.046;10.676;2022-11-15T00:09:08;7.10;99.90
11126;DHT22;5617;54.046;10.676;2022-11-15T00:11:17;7.10;99.90
11126;DHT22;5617;54.046;10.676;2022-11-15T00:13:26;7.10;99.90
11126;DHT22;5617;54.046;10.676;2022-11-15T00:15:35;7.10;99.90
11126;DHT22;5617;54.046;10.676;2022-11-15T00:17:48;7.10;99.90
11126;DHT22;5617;54.046;10.676;2022-11-15T00:19:56;7.10;99.90
11126;DHT22;5617;54.046;10.676;2022-11-15T00:22:04;7.10;99.90
11126;DHT22;5617;54.046;10.676;2022-11-15T00:24:11;7.10;99.90
11126;DHT22;5617;54.046;10.676;2022-11-15T00:26:19;7.10;99.90
11126;DHT22;5617;54.046;10.676;2022-11-15T00:28:27;7.10;99.90
11126;DHT22;5617;54.046;10.676;2022-11-15T00:30:34;7.10;99.90
11126;DHT22;5617;54.046;10.676;2022-11-15T00:32:42;7.10;99.90
11126;DHT22;5617;54.046;10.676;2022-11-15T00:34:51;7.10;99.90
11126;DHT22;5617;54.046;10.676;2022-11-15T00:36:59;7.10;99.90
11126;DHT22;5617;54.046;10.676;2022-11-15T00:39:06;7.10;99.90
11126;DHT22;5617;54.046;10.676;2022-11-15T00:41:14;7.00;99.90
11126;DHT22;5617;54.046;10.676;2022-11-15T00:43:22;7.00;99.90
11126;DHT22;5617;54.046;10.676;2022-11-15T00:45:29;7.00;99.90
11126;DHT22;5617;54.046;10.676;2022-11-15T00:47:37;6.90;99.90
11126;DHT22;5617;54.046;10.676;2022-11-15T00:49:45;6.90;99.90
11126;DHT22;5617;54.046;10.676;2022-11-15T00:51:54;6.90;99.90
11126;DHT22;5617;54.046;10.676;2022-11-15T00:54:01;6.80;99.90
11126;DHT22;5617;54.046;10.676;2022-11-15T00:56:09;6.80;99.90
11126;DHT22;5617;54.046;10.676;2022-11-15T00:58:17;6.80;99.90
11126;DHT22;5617;54.046;10.676;2022-11-15T01:00:24;6.70;99.90
11126;DHT22;5617;54.046;10.676;2022-11-15T01:02:32;6.70;99.90
11126;DHT22;5617;54.046;10.676;2022-11-15T01:04:40;6.70;99.90
11126;DHT22;5617;54.046;10.676;2022-11-15T01:06:48;6.70;99.90
11126;DHT22;5617;54.046;10.676;2022-11-15T01:08:57;6.60;99.90
11126;DHT22;5617;54.046;10.676;2022-11-15T01:11:08;6.70;99.90
11126;DHT22;5617;54.046;10.676;2022-11-15T01:13:16;6.60;99.90
11126;DHT22;5617;54.046;10.676;2022-11-15T01:15:24;6.70;99.90
11126;DHT22;5617;54.046;10.676;2022-11-15T01:17:31;6.70;99.90
11126;DHT22;5617;54.046;10.676;2022-11-15T01:19:39;6.50;99.90
11126;DHT22;5617;54.046;10.676;2022-11-15T01:21:48;6.50;99.90
11126;DHT22;5617;54.046;10.676;2022-11-15T01:23:57;6.50;99.90
11126;DHT22;5617;54.046;10.676;2022-11-15T01:26:06;6.50;99.90
11126;DHT22;5617;54.046;10.676;2022-11-15T01:28:14;6.40;99.90
11126;DHT22;5617;54.046;10.676;2022-11-15T01:30:22;6.40;99.90
11126;DHT22;5617;54.046;10.676;2022-11-15T01:32:30;6.40;99.90
11126;DHT22;5617;54.046;10.676;2022-11-15T01:34:37;6.40;99.90
11126;DHT22;5617;54.046;10.676;2022-11-15T01:36:45;6.30;99.90
11126;DHT22;5617;54.046;10.676;2022-11-15T01:38:53;6.30;99.90
11126;DHT22;5617;54.046;10.676;2022-11-15T01:41:03;6.30;99.90
11126;DHT22;5617;54.046;10.676;2022-11-15T01:43:19;6.30;99.90
11126;DHT22;5617;54.046;10.676;2022-11-15T01:45:27;6.30;99.90
11126;DHT22;5617;54.046;10.676;2022-11-15T01:47:39;6.20;99.90
11126;DHT22;5617;54.046;10.676;2022-11-15T01:49:54;6.30;99.90
11126;DHT22;5617;54.046;10.676;2022-11-15T01:52:05;6.20;99.90
11126;DHT22;5617;54.046;10.676;2022-11-15T01:54:16;6.30;99.90
11126;DHT22;5617;54.046;10.676;2022-11-15T01:56:29;6.20;99.90
11126;DHT22;5617;54.046;10.676;2022-11-15T01:58:39;6.20;99.90
11126;DHT22;5617;54.046;10.676;2022-11-15T02:00:49;6.20;99.90
11126;DHT22;5617;54.046;10.676;2022-11-15T02:02:57;6.20;99.90
11126;DHT22;5617;54.046;10.676;2022-11-15T02:05:06;6.20;99.90
11126;DHT22;5617;54.046;10.676;2022-11-15T02:07:16;6.20;99.90
11126;DHT22;5617;54.046;10.676;2022-11-15T02:09:24;6.20;99.90
11126;DHT22;5617;54.046;10.676;2022-11-15T02:11:33;6.30;99.90
11126;DHT22;5617;54.046;10.676;2022-11-15T02:13:42;6.30;99.90
11126;DHT22;5617;54.046;10.676;2022-11-15T02:15:58;6.20;99.90
11126;DHT22;5617;54.046;10.676;2022-11-15T02:18:13;6.30;99.90
11126;DHT22;5617;54.046;10.676;2022-11-15T02:20:55;6.20;99.90
11126;DHT22;5617;54.046;10.676;2022-11-15T02:26:00;6.30;99.90
11126;DHT22;5617;54.046;10.676;2022-11-15T02:28:48;6.30;99.90
11126;DHT22;5617;54.046;10.676;2022-11-15T02:31:03;6.20;99.90
11126;DHT22;5617;54.046;10.676;2022-11-15T02:33:23;6.20;99.90
11126;DHT22;5617;54.046;10.676;2022-11-15T02:35:39;6.20;99.90
11126;DHT22;5617;54.046;10.676;2022-11-15T02:37:54;6.20;99.90
11126;DHT22;5617;54.046;10.676;2022-11-15T02:40:13;6.20;99.90
11126;DHT22;5617;54.046;10.676;2022-11-15T02:42:26;6.20;99.90
11126;DHT22;5617;54.046;10.676;2022-11-15T02:44:53;6.20;99.90
11126;DHT22;5617;54.046;10.676;2022-11-15T02:47:06;6.20;99.90
11126;DHT22;5617;54.046;10.676;2022-11-15T02:49:22;6.10;99.90
11126;DHT22;5617;54.046;10.676;2022-11-15T02:51:30;6.10;99.90
11126;DHT22;5617;54.046;10.676;2022-11-15T02:53:39;6.10;99.90
11126;DHT22;5617;54.046;10.676;2022-11-15T02:55:50;6.10;99.90
11126;DHT22;5617;54.046;10.676;2022-11-15T02:58:19;6.10;99.90
11126;DHT22;5617;54.046;10.676;2022-11-15T03:00:34;6.10;99.90
11126;DHT22;5617;54.046;10.676;2022-11-15T03:05:18;6.10;99.90
11126;DHT22;5617;54.046;10.676;2022-11-15T03:07:30;6.00;99.90
11126;DHT22;5617;54.046;10.676;2022-11-15T03:09:44;6.00;99.90
11126;DHT22;5617;54.046;10.676;2022-11-15T03:11:57;6.00;99.90
11126;DHT22;5617;54.046;10.676;2022-11-15T03:14:13;6.00;99.90
11126;DHT22;5617;54.046;10.676;2022-11-15T03:16:29;6.00;99.90
11126;DHT22;5617;54.046;10.676;2022-11-15T03:18:41;5.90;99.90
11126;DHT22;5617;54.046;10.676;2022-11-15T03:20:53;5.90;99.90
11126;DHT22;5617;54.046;10.676;2022-11-15T03:23:05;6.00;99.90
11126;DHT22;5617;54.046;10.676;2022-11-15T03:25:17;5.90;99.90
11126;DHT22;5617;54.046;10.676;2022-11-15T03:27:28;5.90;99.90
11126;DHT22;5617;54.046;10.676;2022-11-15T03:29:41;5.80;99.90
11126;DHT22;5617;54.046;10.676;2022-11-15T03:31:54;5.80;99.90
11126;DHT22;5617;54.046;10.676;2022-11-15T03:34:08;5.80;99.90
11126;DHT22;5617;54.046;10.676;2022-11-15T03:36:17;5.70;99.90
11126;DHT22;5617;54.046;10.676;2022-11-15T03:38:26;5.60;99.90
11126;DHT22;5617;54.046;10.676;2022-11-15T03:40:38;5.60;99.90
11126;DHT22;5617;54.046;10.676;2022-11-15T03:42:51;5.60;99.90
11126;DHT22;5617;54.046;10.676;2022-11-15T03:45:03;5.60;99.90
11126;DHT22;5617;54.046;10.676;2022-11-15T03:47:17;5.50;99.90
11126;DHT22;5617;54.046;10.676;2022-11-15T03:49:31;5.70;99.90
11126;DHT22;5617;54.046;10.676;2022-11-15T03:51:40;5.50;99.90
11126;DHT22;5617;54.046;10.676;2022-11-15T03:53:48;5.50;99.90
11126;DHT22;5617;54.046;10.676;2022-11-15T03:55:56;5.50;99.90
11126;DHT22;5617;54.046;10.676;2022-11-15T03:58:04;5.40;99.90
11126;DHT22;5617;54.046;10.676;2022-11-15T04:00:16;5.40;99.90
11126;DHT22;5617;54.046;10.676;2022-11-15T04:02:24;5.40;99.90
11126;DHT22;5617;54.046;10.676;2022-11-15T04:04:34;5.40;99.90
11126;DHT22;5617;54.046;10.676;2022-11-15T04:06:43;5.40;99.90
11126;DHT22;5617;54.046;10.676;2022-11-15T04:08:52;5.30;99.90
11126;DHT22;5617;54.046;10.676;2022-11-15T04:11:01;5.30;99.90
11126;DHT22;5617;54.046;10.676;2022-11-15T04:13:09;5.30;99.90
11126;DHT22;5617;54.046;10.676;2022-11-15T04:15:22;5.30;99.90
11126;DHT22;5617;54.046;10.676;2022-11-15T04:17:30;5.40;99.90
11126;DHT22;5617;54.046;10.676;2022-11-15T04:19:44;5.30;99.90
11126;DHT22;5617;54.046;10.676;2022-11-15T04:22:10;5.30;99.90
11126;DHT22;5617;54.046;10.676;2022-11-15T04:24:39;5.30;99.90
11126;DHT22;5617;54.046;10.676;2022-11-15T04:26:47;5.30;99.90
11126;DHT22;5617;54.046;10.676;2022-11-15T04:28:55;5.30;99.90
11126;DHT22;5617;54.046;10.676;2022-11-15T04:31:20;5.30;99.90
11126;DHT22;5617;54.046;10.676;2022-11-15T04:33:28;5.20;99.90
11126;DHT22;5617;54.046;10.676;2022-11-15T04:35:38;5.20;99.90
11126;DHT22;5617;54.046;10.676;2022-11-15T04:37:46;5.10;99.90
11126;DHT22;5617;54.046;10.676;2022-11-15T04:39:53;5.10;99.90
11126;DHT22;5617;54.046;10.676;2022-11-15T04:42:00;5.10;99.90
11126;DHT22;5617;54.046;10.676;2022-11-15T04:44:09;5.00;99.90
11126;DHT22;5617;54.046;10.676;2022-11-15T04:46:17;5.00;99.90
11126;DHT22;5617;54.046;10.676;2022-11-15T04:48:27;5.00;99.90
11126;DHT22;5617;54.046;10.676;2022-11-15T04:50:35;5.00;99.90
11126;DHT22;5617;54.046;10.676;2022-11-15T04:52:51;4.90;99.90
11126;DHT22;5617;54.046;10.676;2022-11-15T04:55:00;4.90;99.90
11126;DHT22;5617;54.046;10.676;2022-11-15T04:57:08;4.80;99.90
11126;DHT22;5617;54.046;10.676;2022-11-15T04:59:16;4.70;99.90
11126;DHT22;5617;54.046;10.676;2022-11-15T05:01:24;4.70;99.90
11126;DHT22;5617;54.046;10.676;2022-11-15T05:03:33;4.70;99.90
11126;DHT22;5617;54.046;10.676;2022-11-15T05:05:58;4.60;99.90
11126;DHT22;5617;54.046;10.676;2022-11-15T05:08:08;4.60;99.90
11126;DHT22;5617;54.046;10.676;2022-11-15T05:10:17;4.50;99.90
11126;DHT22;5617;54.046;10.676;2022-11-15T05:12:24;4.50;99.90
11126;DHT22;5617;54.046;10.676;2022-11-15T05:14:32;4.60;99.90
11126;DHT22;5617;54.046;10.676;2022-11-15T05:16:40;4.60;99.90
11126;DHT22;5617;54.046;10.676;2022-11-15T05:18:50;4.60;99.90
11126;DHT22;5617;54.046;10.676;2022-11-15T05:21:03;4.60;99.90
11126;DHT22;5617;54.046;10.676;2022-11-15T05:23:12;4.70;99.90
11126;DHT22;5617;54.046;10.676;2022-11-15T05:25:20;4.70;99.90
11126;DHT22;5617;54.046;10.676;2022-11-15T05:27:28;4.80;99.90
11126;DHT22;5617;54.046;10.676;2022-11-15T05:29:35;4.90;99.90
11126;DHT22;5617;54.046;10.676;2022-11-15T05:31:43;4.90;99.90
11126;DHT22;5617;54.046;10.676;2022-11-15T05:33:52;5.00;99.90
11126;DHT22;5617;54.046;10.676;2022-11-15T05:36:04;5.00;99.90
11126;DHT22;5617;54.046;10.676;2022-11-15T05:38:13;5.00;99.90
11126;DHT22;5617;54.046;10.676;2022-11-15T05:40:21;5.10;99.90
11126;DHT22;5617;54.046;10.676;2022-11-15T05:42:29;5.10;99.90
11126;DHT22;5617;54.046;10.676;2022-11-15T05:44:39;5.20;99.90
11126;DHT22;5617;54.046;10.676;2022-11-15T05:46:49;5.20;99.90
11126;DHT22;5617;54.046;10.676;2022-11-15T05:49:00;5.30;99.90
11126;DHT22;5617;54.046;10.676;2022-11-15T05:51:08;5.40;99.90
11126;DHT22;5617;54.046;10.676;2022-11-15T05:53:19;5.40;99.90
11126;DHT22;5617;54.046;10.676;2022-11-15T05:55:27;5.40;99.90
11126;DHT22;5617;54.046;10.676;2022-11-15T05:57:35;5.50;99.90
11126;DHT22;5617;54.046;10.676;2022-11-15T05:59:43;5.50;99.90
11126;DHT22;5617;54.046;10.676;2022-11-15T06:01:51;5.50;99.90
11126;DHT22;5617;54.046;10.676;2022-11-15T06:03:59;5.60;99.90
11126;DHT22;5617;54.046;10.676;2022-11-15T06:06:07;5.70;99.90
11126;DHT22;5617;54.046;10.676;2022-11-15T06:08:16;5.70;99.90
11126;DHT22;5617;54.046;10.676;2022-11-15T06:10:24;5.80;99.90
11126;DHT22;5617;54.046;10.676;2022-11-15T06:12:31;5.90;99.90
11126;DHT22;5617;54.046;10.676;2022-11-15T06:14:39;6.00;99.90
11126;DHT22;5617;54.046;10.676;2022-11-15T06:16:47;6.00;99.90
11126;DHT22;5617;54.046;10.676;2022-11-15T06:18:54;6.10;99.90
11126;DHT22;5617;54.046;10.676;2022-11-15T06:21:02;6.20;99.90
11126;DHT22;5617;54.046;10.676;2022-11-15T06:23:10;6.20;99.90
11126;DHT22;5617;54.046;10.676;2022-11-15T06:25:19;6.30;99.90
11126;DHT22;5617;54.046;10.676;2022-11-15T06:27:27;6.30;99.90
11126;DHT22;5617;54.046;10.676;2022-11-15T06:29:34;6.40;99.90
11126;DHT22;5617;54.046;10.676;2022-11-15T06:31:42;6.40;99.90
11126;DHT22;5617;54.046;10.676;2022-11-15T06:33:50;6.50;99.90
11126;DHT22;5617;54.046;10.676;2022-11-15T06:36:00;6.50;99.90
11126;DHT22;5617;54.046;10.676;2022-11-15T06:38:09;6.50;99.90
11126;DHT22;5617;54.046;10.676;2022-11-15T06:40:18;6.60;99.90
11126;DHT22;5617;54.046;10.676;2022-11-15T06:42:26;6.70;99.90
11126;DHT22;5617;54.046;10.676;2022-11-15T06:44:34;6.60;99.90
11126;DHT22;5617;54.046;10.676;2022-11-15T06:46:41;6.70;99.90
11126;DHT22;5617;54.046;10.676;2022-11-15T06:48:50;6.70;99.90
11126;DHT22;5617;54.046;10.676;2022-11-15T06:50:59;6.80;99.90
11126;DHT22;5617;54.046;10.676;2022-11-15T06:53:07;6.80;99.90
11126;DHT22;5617;54.046;10.676;2022-11-15T06:55:15;6.90;99.90
11126;DHT22;5617;54.046;10.676;2022-11-15T06:57:24;6.90;99.90
11126;DHT22;5617;54.046;10.676;2022-11-15T06:59:32;7.00;99.90
11126;DHT22;5617;54.046;10.676;2022-11-15T07:01:39;7.00;99.90
11126;DHT22;5617;54.046;10.676;2022-11-15T07:03:47;7.10;99.90
11126;DHT22;5617;54.046;10.676;2022-11-15T07:05:56;7.10;99.90
11126;DHT22;5617;54.046;10.676;2022-11-15T07:08:04;7.20;99.90
11126;DHT22;5617;54.046;10.676;2022-11-15T07:10:12;7.20;99.90
11126;DHT22;5617;54.046;10.676;2022-11-15T07:12:19;7.30;99.90
11126;DHT22;5617;54.046;10.676;2022-11-15T07:14:28;7.30;99.90
11126;DHT22;5617;54.046;10.676;2022-11-15T07:16:36;7.30;99.90
11126;DHT22;5617;54.046;10.676;2022-11-15T07:18:44;7.40;99.90
11126;DHT22;5617;54.046;10.676;2022-11-15T07:20:52;7.40;99.90
11126;DHT22;5617;54.046;10.676;2022-11-15T07:23:00;7.40;99.90
11126;DHT22;5617;54.046;10.676;2022-11-15T07:25:09;7.40;99.90
11126;DHT22;5617;54.046;10.676;2022-11-15T07:27:16;7.40;99.90
11126;DHT22;5617;54.046;10.676;2022-11-15T07:29:24;7.50;99.90
11126;DHT22;5617;54.046;10.676;2022-11-15T07:31:33;7.40;99.90
11126;DHT22;5617;54.046;10.676;2022-11-15T07:33:41;7.50;99.90
11126;DHT22;5617;54.046;10.676;2022-11-15T07:35:49;7.60;99.90
11126;DHT22;5617;54.046;10.676;2022-11-15T07:37:59;7.50;99.90
11126;DHT22;5617;54.046;10.676;2022-11-15T07:40:08;7.60;99.90
11126;DHT22;5617;54.046;10.676;2022-11-15T07:42:16;7.60;99.90
11126;DHT22;5617;54.046;10.676;2022-11-15T07:44:42;7.60;99.90
11126;DHT22;5617;54.046;10.676;2022-11-15T07:46:51;7.60;99.90
11126;DHT22;5617;54.046;10.676;2022-11-15T07:48:58;7.60;99.90
11126;DHT22;5617;54.046;10.676;2022-11-15T07:51:06;7.60;99.90
11126;DHT22;5617;54.046;10.676;2022-11-15T07:53:14;7.70;99.90
11126;DHT22;5617;54.046;10.676;2022-11-15T07:55:22;7.70;99.90
11126;DHT22;5617;54.046;10.676;2022-11-15T07:57:33;7.70;99.90
11126;DHT22;5617;54.046;10.676;2022-11-15T07:59:41;7.70;99.90
11126;DHT22;5617;54.046;10.676;2022-11-15T08:01:51;7.70;99.90
11126;DHT22;5617;54.046;10.676;2022-11-15T08:03:59;7.80;99.90
11126;DHT22;5617;54.046;10.676;2022-11-15T08:06:07;7.80;99.90
11126;DHT22;5617;54.046;10.676;2022-11-15T08:08:14;7.80;99.90
11126;DHT22;5617;54.046;10.676;2022-11-15T08:10:22;7.90;99.90
11126;DHT22;5617;54.046;10.676;2022-11-15T08:12:30;7.90;99.90
11126;DHT22;5617;54.046;10.676;2022-11-15T08:14:38;7.90;99.90
11126;DHT22;5617;54.046;10.676;2022-11-15T08:16:46;8.00;99.90
11126;DHT22;5617;54.046;10.676;2022-11-15T08:18:55;8.00;99.90
11126;DHT22;5617;54.046;10.676;2022-11-15T08:21:03;8.00;99.90
11126;DHT22;5617;54.046;10.676;2022-11-15T08:23:12;8.00;99.90
11126;DHT22;5617;54.046;10.676;2022-11-15T08:25:20;8.10;99.90
11126;DHT22;5617;54.046;10.676;2022-11-15T08:27:28;8.10;99.90
11126;DHT22;5617;54.046;10.676;2022-11-15T08:29:35;8.10;99.90
11126;DHT22;5617;54.046;10.676;2022-11-15T08:31:43;8.20;99.90
11126;DHT22;5617;54.046;10.676;2022-11-15T08:33:51;8.20;99.90
11126;DHT22;5617;54.046;10.676;2022-11-15T08:36:01;8.30;99.90
11126;DHT22;5617;54.046;10.676;2022-11-15T08:38:09;8.30;99.90
11126;DHT22;5617;54.046;10.676;2022-11-15T08:40:17;8.40;99.90
11126;DHT22;5617;54.046;10.676;2022-11-15T08:42:25;8.40;99.90
11126;DHT22;5617;54.046;10.676;2022-11-15T08:44:34;8.50;99.90
11126;DHT22;5617;54.046;10.676;2022-11-15T08:46:41;8.50;99.90
11126;DHT22;5617;54.046;10.676;2022-11-15T08:48:49;8.50;99.90
11126;DHT22;5617;54.046;10.676;2022-11-15T08:51:00;8.50;99.90
11126;DHT22;5617;54.046;10.676;2022-11-15T08:53:10;8.60;99.90
11126;DHT22;5617;54.046;10.676;2022-11-15T08:55:18;8.60;99.90
11126;DHT22;5617;54.046;10.676;2022-11-15T08:57:28;8.60;99.90
11126;DHT22;5617;54.046;10.676;2022-11-15T08:59:36;8.70;99.90
11126;DHT22;5617;54.046;10.676;2022-11-15T09:01:44;8.70;99.90
11126;DHT22;5617;54.046;10.676;2022-11-15T09:03:52;8.70;99.90
11126;DHT22;5617;54.046;10.676;2022-11-15T09:06:02;8.80;99.90
11126;DHT22;5617;54.046;10.676;2022-11-15T09:08:09;8.80;99.90
11126;DHT22;5617;54.046;10.676;2022-11-15T09:10:17;8.80;99.90
11126;DHT22;5617;54.046;10.676;2022-11-15T09:12:25;8.90;99.90
11126;DHT22;5617;54.046;10.676;2022-11-15T09:14:33;8.90;99.90
11126;DHT22;5617;54.046;10.676;2022-11-15T09:16:41;8.90;99.90
11126;DHT22;5617;54.046;10.676;2022-11-15T09:18:49;8.90;99.90
11126;DHT22;5617;54.046;10.676;2022-11-15T09:20:57;8.90;99.90
11126;DHT22;5617;54.046;10.676;2022-11-15T09:23:06;9.00;99.90
11126;DHT22;5617;54.046;10.676;2022-11-15T09:25:14;9.00;99.90
11126;DHT22;5617;54.046;10.676;2022-11-15T09:27:21;9.00;99.90
11126;DHT22;5617;54.046;10.676;2022-11-15T09:29:29;9.10;99.90
11126;DHT22;5617;54.046;10.676;2022-11-15T09:31:37;9.10;99.90
11126;DHT22;5617;54.046;10.676;2022-11-15T09:33:45;9.10;99.90
11126;DHT22;5617;54.046;10.676;2022-11-15T09:35:53;9.10;99.90
11126;DHT22;5617;54.046;10.676;2022-11-15T09:38:01;9.10;99.90
11126;DHT22;5617;54.046;10.676;2022-11-15T09:40:13;9.20;99.90
11126;DHT22;5617;54.046;10.676;2022-11-15T09:42:34;9.20;99.90
11126;DHT22;5617;54.046;10.676;2022-11-15T09:47:37;9.30;99.90
11126;DHT22;5617;54.046;10.676;2022-11-15T09:49:51;9.30;99.90
11126;DHT22;5617;54.046;10.676;2022-11-15T09:51:59;9.40;99.90
11126;DHT22;5617;54.046;10.676;2022-11-15T09:54:11;9.40;99.90
11126;DHT22;5617;54.046;10.676;2022-11-15T09:56:26;9.40;99.90
11126;DHT22;5617;54.046;10.676;2022-11-15T09:58:39;9.40;99.90
11126;DHT22;5617;54.046;10.676;2022-11-15T10:00:49;9.50;99.90
11126;DHT22;5617;54.046;10.676;2022-11-15T10:03:09;9.50;99.90
11126;DHT22;5617;54.046;10.676;2022-11-15T10:05:21;9.50;99.90
11126;DHT22;5617;54.046;10.676;2022-11-15T10:07:34;9.50;99.90
11126;DHT22;5617;54.046;10.676;2022-11-15T10:09:49;9.60;99.90
11126;DHT22;5617;54.046;10.676;2022-11-15T10:12:00;9.60;99.90
11126;DHT22;5617;54.046;10.676;2022-11-15T10:14:11;9.70;99.90
11126;DHT22;5617;54.046;10.676;2022-11-15T10:19:11;9.90;99.90
11126;DHT22;5617;54.046;10.676;2022-11-15T10:23:30;9.90;99.90
11126;DHT22;5617;54.046;10.676;2022-11-15T10:25:39;10.00;99.90
11126;DHT22;5617;54.046;10.676;2022-11-15T10:27:54;10.00;99.90
11126;DHT22;5617;54.046;10.676;2022-11-15T10:30:05;10.00;99.90
11126;DHT22;5617;54.046;10.676;2022-11-15T10:32:19;10.00;99.90
11126;DHT22;5617;54.046;10.676;2022-11-15T10:34:27;10.00;99.90
11126;DHT22;5617;54.046;10.676;2022-11-15T10:36:35;10.10;99.90
11126;DHT22;5617;54.046;10.676;2022-11-15T10:38:57;10.10;99.90
11126;DHT22;5617;54.046;10.676;2022-11-15T10:41:07;10.10;99.90
11126;DHT22;5617;54.046;10.676;2022-11-15T10:43:18;10.10;99.90
11126;DHT22;5617;54.046;10.676;2022-11-15T10:45:28;10.00;99.90
11126;DHT22;5617;54.046;10.676;2022-11-15T10:47:36;10.10;99.90
11126;DHT22;5617;54.046;10.676;2022-11-15T10:49:57;10.10;99.90
11126;DHT22;5617;54.046;10.676;2022-11-15T10:52:15;10.10;99.90
11126;DHT22;5617;54.046;10.676;2022-11-15T10:54:28;10.10;99.90
11126;DHT22;5617;54.046;10.676;2022-11-15T10:56:37;10.10;99.90
11126;DHT22;5617;54.046;10.676;2022-11-15T10:58:52;10.20;99.90
11126;DHT22;5617;54.046;10.676;2022-11-15T11:01:12;10.20;99.90
11126;DHT22;5617;54.046;10.676;2022-11-15T11:03:28;10.20;99.90
11126;DHT22;5617;54.046;10.676;2022-11-15T11:05:38;10.20;99.90
11126;DHT22;5617;54.046;10.676;2022-11-15T11:07:56;10.20;99.90
11126;DHT22;5617;54.046;10.676;2022-11-15T11:10:19;10.20;99.90
11126;DHT22;5617;54.046;10.676;2022-11-15T11:12:28;10.20;99.90
11126;DHT22;5617;54.046;10.676;2022-11-15T11:14:39;10.30;99.90
11126;DHT22;5617;54.046;10.676;2022-11-15T11:16:49;10.40;99.90
11126;DHT22;5617;54.046;10.676;2022-11-15T11:19:03;10.40;99.90
11126;DHT22;5617;54.046;10.676;2022-11-15T11:21:15;10.40;99.90
11126;DHT22;5617;54.046;10.676;2022-11-15T11:23:38;10.40;99.90
11126;DHT22;5617;54.046;10.676;2022-11-15T11:25:55;10.50;99.90
11126;DHT22;5617;54.046;10.676;2022-11-15T11:28:22;10.50;99.90
11126;DHT22;5617;54.046;10.676;2022-11-15T11:30:43;10.60;99.90
11126;DHT22;5617;54.046;10.676;2022-11-15T11:33:11;10.60;99.90
11126;DHT22;5617;54.046;10.676;2022-11-15T11:35:23;10.70;99.90
11126;DHT22;5617;54.046;10.676;2022-11-15T11:37:37;10.70;99.90
11126;DHT22;5617;54.046;10.676;2022-11-15T11:39:58;10.70;99.90
11126;DHT22;5617;54.046;10.676;2022-11-15T11:42:16;10.70;99.90
11126;DHT22;5617;54.046;10.676;2022-11-15T11:44:39;10.70;99.90
11126;DHT22;5617;54.046;10.676;2022-11-15T11:46:56;10.80;99.90
11126;DHT22;5617;54.046;10.676;2022-11-15T11:49:09;10.80;99.90
11126;DHT22;5617;54.046;10.676;2022-11-15T11:51:20;10.80;99.90
11126;DHT22;5617;54.046;10.676;2022-11-15T11:53:37;10.80;99.90
11126;DHT22;5617;54.046;10.676;2022-11-15T11:55:49;10.80;99.90
11126;DHT22;5617;54.046;10.676;2022-11-15T11:58:06;10.80;99.90
11126;DHT22;5617;54.046;10.676;2022-11-15T12:00:19;10.80;99.90
11126;DHT22;5617;54.046;10.676;2022-11-15T12:02:31;10.80;99.90
11126;DHT22;5617;54.046;10.676;2022-11-15T12:04:45;10.90;99.90
11126;DHT22;5617;54.046;10.676;2022-11-15T12:07:00;10.90;99.90
11126;DHT22;5617;54.046;10.676;2022-11-15T12:09:14;10.90;99.90
11126;DHT22;5617;54.046;10.676;2022-11-15T12:11:28;10.90;99.90
11126;DHT22;5617;54.046;10.676;2022-11-15T12:13:37;11.00;99.90
11126;DHT22;5617;54.046;10.676;2022-11-15T12:15:50;11.00;99.90
11126;DHT22;5617;54.046;10.676;2022-11-15T12:18:01;11.00;99.90
11126;DHT22;5617;54.046;10.676;2022-11-15T12:20:15;11.00;99.90
11126;DHT22;5617;54.046;10.676;2022-11-15T12:22:32;11.00;99.90
11126;DHT22;5617;54.046;10.676;2022-11-15T12:24:44;11.00;99.90
11126;DHT22;5617;54.046;10.676;2022-11-15T12:27:00;11.10;99.90
11126;DHT22;5617;54.046;10.676;2022-11-15T12:29:15;11.10;99.90
11126;DHT22;5617;54.046;10.676;2022-11-15T12:31:38;11.10;99.90
11126;DHT22;5617;54.046;10.676;2022-11-15T12:33:49;11.20;99.90
11126;DHT22;5617;54.046;10.676;2022-11-15T12:35:59;11.20;99.90
11126;DHT22;5617;54.046;10.676;2022-11-15T12:38:09;11.20;99.90
11126;DHT22;5617;54.046;10.676;2022-11-15T12:40:24;11.20;99.90
11126;DHT22;5617;54.046;10.676;2022-11-15T12:42:36;11.20;99.90
11126;DHT22;5617;54.046;10.676;2022-11-15T12:44:57;11.20;99.90
11126;DHT22;5617;54.046;10.676;2022-11-15T12:47:23;11.20;99.90
11126;DHT22;5617;54.046;10.676;2022-11-15T12:49:46;11.30;99.90
11126;DHT22;5617;54.046;10.676;2022-11-15T12:52:07;11.20;99.90
11126;DHT22;5617;54.046;10.676;2022-11-15T12:54:49;11.20;99.90
11126;DHT22;5617;54.046;10.676;2022-11-15T12:59:52;11.20;99.90
11126;DHT22;5617;54.046;10.676;2022-11-15T13:02:02;11.20;99.90
11126;DHT22;5617;54.046;10.676;2022-11-15T13:04:27;11.20;99.90
11126;DHT22;5617;54.046;10.676;2022-11-15T13:06:40;11.20;99.90
11126;DHT22;5617;54.046;10.676;2022-11-15T13:08:49;11.20;99.90
11126;DHT22;5617;54.046;10.676;2022-11-15T13:10:57;11.20;99.90
11126;DHT22;5617;54.046;10.676;2022-11-15T13:13:08;11.20;99.90
11126;DHT22;5617;54.046;10.676;2022-11-15T13:15:36;11.20;99.90
11126;DHT22;5617;54.046;10.676;2022-11-15T13:17:45;11.20;99.90
11126;DHT22;5617;54.046;10.676;2022-11-15T13:19:58;11.20;99.90
11126;DHT22;5617;54.046;10.676;2022-11-15T13:22:10;11.20;99.90
11126;DHT22;5617;54.046;10.676;2022-11-15T13:24:38;11.20;99.90
11126;DHT22;5617;54.046;10.676;2022-11-15T13:26:46;11.30;99.90
11126;DHT22;5617;54.046;10.676;2022-11-15T13:28:54;11.30;99.90
11126;DHT22;5617;54.046;10.676;2022-11-15T13:31:22;11.30;99.90
11126;DHT22;5617;54.046;10.676;2022-11-15T13:33:35;11.30;99.90
11126;DHT22;5617;54.046;10.676;2022-11-15T13:35:48;11.30;99.90
11126;DHT22;5617;54.046;10.676;2022-11-15T13:38:03;11.30;99.90
11126;DHT22;5617;54.046;10.676;2022-11-15T13:40:23;11.40;99.90
11126;DHT22;5617;54.046;10.676;2022-11-15T13:42:33;11.40;99.90
11126;DHT22;5617;54.046;10.676;2022-11-15T13:44:55;11.40;99.90
11126;DHT22;5617;54.046;10.676;2022-11-15T13:47:05;11.40;99.90
11126;DHT22;5617;54.046;10.676;2022-11-15T13:49:13;11.40;99.90
11126;DHT22;5617;54.046;10.676;2022-11-15T13:51:33;11.50;99.90
11126;DHT22;5617;54.046;10.676;2022-11-15T13:53:46;11.50;99.90
11126;DHT22;5617;54.046;10.676;2022-11-15T13:55:55;11.50;99.90
11126;DHT22;5617;54.046;10.676;2022-11-15T13:58:04;11.60;99.90
11126;DHT22;5617;54.046;10.676;2022-11-15T14:00:33;11.60;99.90
11126;DHT22;5617;54.046;10.676;2022-11-15T14:02:42;11.60;99.90
11126;DHT22;5617;54.046;10.676;2022-11-15T14:04:52;11.70;99.90
11126;DHT22;5617;54.046;10.676;2022-11-15T14:07:01;11.70;99.90
11126;DHT22;5617;54.046;10.676;2022-11-15T14:09:35;11.70;99.90
11126;DHT22;5617;54.046;10.676;2022-11-15T14:11:50;11.70;99.90
11126;DHT22;5617;54.046;10.676;2022-11-15T14:14:11;11.70;99.90
11126;DHT22;5617;54.046;10.676;2022-11-15T14:16:33;11.70;99.90